sensor_id;sensor_type;location;lat;lon;timestamp;temperature;humidity
1766;DHT22;880;52.452;8.656;2022-10-16T00:01:40;13.90;99.90
1766;DHT22;880;52.452;8.656;2022-10-16T00:04:08;13.90;99.90
1766;DHT22;880;52.452;8.656;2022-10-16T00:06:35;13.90;99.90
1766;DHT22;880;52.452;8.656;2022-10-16T00:09:02;13.90;99.90
1766;DHT22;880;52.452;8.656;2022-10-16T00:11:31;13.90;99.90
1766;DHT22;880;52.452;8.656;2022-10-16T00:14:01;13.90;99.90
1766;DHT22;880;52.452;8.656;2022-10-16T00:16:30;13.90;99.90
1766;DHT22;880;52.452;8.656;2022-10-16T00:18:58;13.90;99.90
1766;DHT22;880;52.452;8.656;2022-10-16T00:21:27;13.90;99.90
1766;DHT22;880;52.452;8.656;2022-10-16T00:24:04;13.90;99.90
1766;DHT22;880;52.452;8.656;2022-10-16T00:26:34;13.90;99.90
1766;DHT22;880;52.452;8.656;2022-10-16T00:29:03;13.90;99.90
1766;DHT22;880;52.452;8.656;2022-10-16T00:31:31;13.90;99.90
1766;DHT22;880;52.452;8.656;2022-10-16T00:33:58;13.90;99.90
1766;DHT22;880;52.452;8.656;2022-10-16T00:36:27;13.80;99.90
1766;DHT22;880;52.452;8.656;2022-10-16T00:38:56;13.80;99.90
1766;DHT22;880;52.452;8.656;2022-10-16T00:41:31;13.80;99.90
1766;DHT22;880;52.452;8.656;2022-10-16T00:44:01;13.90;99.90
1766;DHT22;880;52.452;8.656;2022-10-16T00:46:38;13.90;99.90
1766;DHT22;880;52.452;8.656;2022-10-16T00:49:15;13.80;99.90
1766;DHT22;880;52.452;8.656;2022-10-16T00:51:51;13.80;99.90
1766;DHT22;880;52.452;8.656;2022-10-16T00:54:26;13.90;99.90
1766;DHT22;880;52.452;8.656;2022-10-16T00:56:58;13.80;99.90
1766;DHT22;880;52.452;8.656;2022-10-16T00:59:29;13.80;99.90
1766;DHT22;880;52.452;8.656;2022-10-16T01:02:03;13.80;99.90
1766;DHT22;880;52.452;8.656;2022-10-16T01:04:38;13.80;99.90
1766;DHT22;880;52.452;8.656;2022-10-16T01:10:38;13.70;99.90
1766;DHT22;880;52.452;8.656;2022-10-16T01:18:37;13.70;99.90
1766;DHT22;880;52.452;8.656;2022-10-16T01:21:24;13.70;99.90
1766;DHT22;880;52.452;8.656;2022-10-16T01:32:27;13.50;99.90
1766;DHT22;880;52.452;8.656;2022-10-16T01:35:14;13.50;99.90
1766;DHT22;880;52.452;8.656;2022-10-16T01:37:53;13.50;99.90
1766;DHT22;880;52.452;8.656;2022-10-16T01:40:36;13.40;99.90
1766;DHT22;880;52.452;8.656;2022-10-16T01:43:09;13.40;99.90
1766;DHT22;880;52.452;8.656;2022-10-16T01:45:41;13.30;99.90
1766;DHT22;880;52.452;8.656;2022-10-16T01:48:13;13.30;99.90
1766;DHT22;880;52.452;8.656;2022-10-16T01:50:48;13.20;99.90
1766;DHT22;880;52.452;8.656;2022-10-16T01:53:36;13.20;99.90
1766;DHT22;880;52.452;8.656;2022-10-16T01:56:06;13.10;99.90
1766;DHT22;880;52.452;8.656;2022-10-16T01:58:40;13.10;99.90
1766;DHT22;880;52.452;8.656;2022-10-16T02:01:11;13.00;99.90
1766;DHT22;880;52.452;8.656;2022-10-16T02:03:42;13.10;99.90
1766;DHT22;880;52.452;8.656;2022-10-16T02:06:10;13.10;99.90
1766;DHT22;880;52.452;8.656;2022-10-16T02:08:37;13.10;99.90
1766;DHT22;880;52.452;8.656;2022-10-16T02:11:05;13.10;99.90
1766;DHT22;880;52.452;8.656;2022-10-16T02:13:43;13.10;99.90
1766;DHT22;880;52.452;8.656;2022-10-16T02:16:35;13.20;99.90
1766;DHT22;880;52.452;8.656;2022-10-16T02:19:11;13.30;99.90
1766;DHT22;880;52.452;8.656;2022-10-16T02:21:47;13.30;99.90
1766;DHT22;880;52.452;8.656;2022-10-16T02:24:51;13.30;99.90
1766;DHT22;880;52.452;8.656;2022-10-16T02:30:25;13.30;99.90
1766;DHT22;880;52.452;8.656;2022-10-16T02:32:53;13.30;99.90
1766;DHT22;880;52.452;8.656;2022-10-16T02:35:21;13.40;99.90
1766;DHT22;880;52.452;8.656;2022-10-16T02:37:49;13.40;99.90
1766;DHT22;880;52.452;8.656;2022-10-16T02:40:18;13.40;99.90
1766;DHT22;880;52.452;8.656;2022-10-16T02:42:51;13.40;99.90
1766;DHT22;880;52.452;8.656;2022-10-16T02:45:20;13.40;99.90
1766;DHT22;880;52.452;8.656;2022-10-16T02:47:49;13.40;99.90
1766;DHT22;880;52.452;8.656;2022-10-16T02:50:16;13.40;99.90
1766;DHT22;880;52.452;8.656;2022-10-16T02:52:43;13.40;99.90
1766;DHT22;880;52.452;8.656;2022-10-16T02:55:10;13.30;99.90
1766;DHT22;880;52.452;8.656;2022-10-16T02:57:37;13.30;99.90
1766;DHT22;880;52.452;8.656;2022-10-16T03:00:11;13.30;99.90
1766;DHT22;880;52.452;8.656;2022-10-16T03:02:40;13.20;99.90
1766;DHT22;880;52.452;8.656;2022-10-16T03:05:09;13.10;99.90
1766;DHT22;880;52.452;8.656;2022-10-16T03:07:36;13.10;99.90
1766;DHT22;880;52.452;8.656;2022-10-16T03:10:03;13.00;99.90
1766;DHT22;880;52.452;8.656;2022-10-16T03:12:31;13.00;99.90
1766;DHT22;880;52.452;8.656;2022-10-16T03:14:58;12.90;99.90
1766;DHT22;880;52.452;8.656;2022-10-16T03:17:25;12.90;99.90
1766;DHT22;880;52.452;8.656;2022-10-16T03:19:52;12.80;99.90
1766;DHT22;880;52.452;8.656;2022-10-16T03:22:19;12.80;99.90
1766;DHT22;880;52.452;8.656;2022-10-16T03:24:47;12.80;99.90
1766;DHT22;880;52.452;8.656;2022-10-16T03:27:14;12.80;99.90
1766;DHT22;880;52.452;8.656;2022-10-16T03:29:41;12.80;99.90
1766;DHT22;880;52.452;8.656;2022-10-16T03:32:08;12.90;99.90
1766;DHT22;880;52.452;8.656;2022-10-16T03:34:35;12.90;99.90
1766;DHT22;880;52.452;8.656;2022-10-16T03:37:02;12.90;99.90
1766;DHT22;880;52.452;8.656;2022-10-16T03:39:29;13.00;99.90
1766;DHT22;880;52.452;8.656;2022-10-16T03:41:56;13.00;99.90
1766;DHT22;880;52.452;8.656;2022-10-16T03:44:23;13.00;99.90
1766;DHT22;880;52.452;8.656;2022-10-16T03:46:50;13.10;99.90
1766;DHT22;880;52.452;8.656;2022-10-16T03:49:17;13.10;99.90
1766;DHT22;880;52.452;8.656;2022-10-16T03:51:44;13.20;99.90
1766;DHT22;880;52.452;8.656;2022-10-16T03:54:11;13.20;99.90
1766;DHT22;880;52.452;8.656;2022-10-16T03:56:38;13.20;99.90
1766;DHT22;880;52.452;8.656;2022-10-16T03:59:05;13.30;99.90
1766;DHT22;880;52.452;8.656;2022-10-16T04:01:32;13.30;99.90
1766;DHT22;880;52.452;8.656;2022-10-16T04:03:59;13.30;99.90
1766;DHT22;880;52.452;8.656;2022-10-16T04:06:26;13.30;99.90
1766;DHT22;880;52.452;8.656;2022-10-16T04:08:54;13.40;99.90
1766;DHT22;880;52.452;8.656;2022-10-16T04:11:21;13.40;99.90
1766;DHT22;880;52.452;8.656;2022-10-16T04:13:48;13.40;99.90
1766;DHT22;880;52.452;8.656;2022-10-16T04:16:15;13.40;99.90
1766;DHT22;880;52.452;8.656;2022-10-16T04:18:42;13.40;99.90
1766;DHT22;880;52.452;8.656;2022-10-16T04:21:09;13.40;99.90
1766;DHT22;880;52.452;8.656;2022-10-16T04:23:36;13.40;99.90
1766;DHT22;880;52.452;8.656;2022-10-16T04:26:03;13.40;99.90
1766;DHT22;880;52.452;8.656;2022-10-16T04:28:30;13.40;99.90
1766;DHT22;880;52.452;8.656;2022-10-16T04:30:57;13.40;99.90
1766;DHT22;880;52.452;8.656;2022-10-16T04:33:24;13.40;99.90
1766;DHT22;880;52.452;8.656;2022-10-16T04:35:58;13.40;99.90
1766;DHT22;880;52.452;8.656;2022-10-16T04:38:27;13.50;99.90
1766;DHT22;880;52.452;8.656;2022-10-16T04:40:54;13.50;99.90
1766;DHT22;880;52.452;8.656;2022-10-16T04:43:22;13.50;99.90
1766;DHT22;880;52.452;8.656;2022-10-16T04:45:50;13.40;99.90
1766;DHT22;880;52.452;8.656;2022-10-16T04:48:18;13.40;99.90
1766;DHT22;880;52.452;8.656;2022-10-16T04:50:45;13.40;99.90
1766;DHT22;880;52.452;8.656;2022-10-16T04:53:18;13.40;99.90
1766;DHT22;880;52.452;8.656;2022-10-16T04:55:45;13.40;99.90
1766;DHT22;880;52.452;8.656;2022-10-16T04:58:12;13.40;99.90
1766;DHT22;880;52.452;8.656;2022-10-16T05:00:39;13.50;99.90
1766;DHT22;880;52.452;8.656;2022-10-16T05:03:06;13.50;99.90
1766;DHT22;880;52.452;8.656;2022-10-16T05:05:35;13.40;99.90
1766;DHT22;880;52.452;8.656;2022-10-16T05:08:03;13.50;99.90
1766;DHT22;880;52.452;8.656;2022-10-16T05:10:30;13.50;99.90
1766;DHT22;880;52.452;8.656;2022-10-16T05:12:57;13.50;99.90
1766;DHT22;880;52.452;8.656;2022-10-16T05:15:24;13.50;99.90
1766;DHT22;880;52.452;8.656;2022-10-16T05:17:55;13.50;99.90
1766;DHT22;880;52.452;8.656;2022-10-16T05:20:23;13.50;99.90
1766;DHT22;880;52.452;8.656;2022-10-16T05:22:50;13.50;99.90
1766;DHT22;880;52.452;8.656;2022-10-16T05:25:17;13.60;99.90
1766;DHT22;880;52.452;8.656;2022-10-16T05:27:47;13.60;99.90
1766;DHT22;880;52.452;8.656;2022-10-16T05:30:16;13.60;99.90
1766;DHT22;880;52.452;8.656;2022-10-16T05:32:50;13.60;99.90
1766;DHT22;880;52.452;8.656;2022-10-16T05:35:18;13.60;99.90
1766;DHT22;880;52.452;8.656;2022-10-16T05:37:46;13.60;99.90
1766;DHT22;880;52.452;8.656;2022-10-16T05:40:14;13.60;99.90
1766;DHT22;880;52.452;8.656;2022-10-16T05:42:41;13.60;99.90
1766;DHT22;880;52.452;8.656;2022-10-16T05:45:10;13.60;99.90
1766;DHT22;880;52.452;8.656;2022-10-16T05:47:38;13.60;99.90
1766;DHT22;880;52.452;8.656;2022-10-16T05:50:06;13.60;99.90
1766;DHT22;880;52.452;8.656;2022-10-16T05:52:33;13.60;99.90
1766;DHT22;880;52.452;8.656;2022-10-16T05:55:00;13.60;99.90
1766;DHT22;880;52.452;8.656;2022-10-16T05:57:27;13.60;99.90
1766;DHT22;880;52.452;8.656;2022-10-16T05:59:55;13.60;99.90
1766;DHT22;880;52.452;8.656;2022-10-16T06:02:22;13.60;99.90
1766;DHT22;880;52.452;8.656;2022-10-16T06:04:51;13.70;99.90
1766;DHT22;880;52.452;8.656;2022-10-16T06:07:20;13.60;99.90
1766;DHT22;880;52.452;8.656;2022-10-16T06:09:52;13.60;99.90
1766;DHT22;880;52.452;8.656;2022-10-16T06:12:20;13.60;99.90
1766;DHT22;880;52.452;8.656;2022-10-16T06:14:47;13.60;99.90
1766;DHT22;880;52.452;8.656;2022-10-16T06:17:14;13.60;99.90
1766;DHT22;880;52.452;8.656;2022-10-16T06:19:41;13.60;99.90
1766;DHT22;880;52.452;8.656;2022-10-16T06:22:08;13.60;99.90
1766;DHT22;880;52.452;8.656;2022-10-16T06:24:35;13.60;99.90
1766;DHT22;880;52.452;8.656;2022-10-16T06:27:04;13.60;99.90
1766;DHT22;880;52.452;8.656;2022-10-16T06:29:31;13.60;99.90
1766;DHT22;880;52.452;8.656;2022-10-16T06:31:58;13.60;99.90
1766;DHT22;880;52.452;8.656;2022-10-16T06:34:25;13.60;99.90
1766;DHT22;880;52.452;8.656;2022-10-16T06:36:52;13.60;99.90
1766;DHT22;880;52.452;8.656;2022-10-16T06:39:19;13.60;99.90
1766;DHT22;880;52.452;8.656;2022-10-16T06:41:46;13.70;99.90
1766;DHT22;880;52.452;8.656;2022-10-16T06:44:16;13.70;99.90
1766;DHT22;880;52.452;8.656;2022-10-16T06:46:43;13.80;99.90
1766;DHT22;880;52.452;8.656;2022-10-16T06:49:10;13.90;99.90
1766;DHT22;880;52.452;8.656;2022-10-16T06:51:38;14.00;99.90
1766;DHT22;880;52.452;8.656;2022-10-16T06:54:09;14.00;99.90
1766;DHT22;880;52.452;8.656;2022-10-16T06:56:36;14.00;99.90
1766;DHT22;880;52.452;8.656;2022-10-16T06:59:04;14.00;99.90
1766;DHT22;880;52.452;8.656;2022-10-16T07:01:31;14.00;99.90
1766;DHT22;880;52.452;8.656;2022-10-16T07:04:00;14.00;99.90
1766;DHT22;880;52.452;8.656;2022-10-16T07:06:32;14.00;99.90
1766;DHT22;880;52.452;8.656;2022-10-16T07:09:02;14.10;99.90
1766;DHT22;880;52.452;8.656;2022-10-16T07:11:31;14.10;99.90
1766;DHT22;880;52.452;8.656;2022-10-16T07:13:58;14.20;99.90
1766;DHT22;880;52.452;8.656;2022-10-16T07:16:27;14.20;99.90
1766;DHT22;880;52.452;8.656;2022-10-16T07:18:57;14.20;99.90
1766;DHT22;880;52.452;8.656;2022-10-16T07:21:33;14.20;99.90
1766;DHT22;880;52.452;8.656;2022-10-16T07:24:10;14.30;99.90
1766;DHT22;880;52.452;8.656;2022-10-16T07:26:39;14.30;99.90
1766;DHT22;880;52.452;8.656;2022-10-16T07:29:12;14.30;99.90
1766;DHT22;880;52.452;8.656;2022-10-16T07:31:44;14.40;99.90
1766;DHT22;880;52.452;8.656;2022-10-16T07:34:12;14.40;99.90
1766;DHT22;880;52.452;8.656;2022-10-16T07:36:41;14.40;99.90
1766;DHT22;880;52.452;8.656;2022-10-16T07:39:13;14.40;99.90
1766;DHT22;880;52.452;8.656;2022-10-16T07:41:40;14.40;99.90
1766;DHT22;880;52.452;8.656;2022-10-16T07:44:07;14.40;99.90
1766;DHT22;880;52.452;8.656;2022-10-16T07:46:35;14.40;99.90
1766;DHT22;880;52.452;8.656;2022-10-16T07:49:03;14.40;99.90
1766;DHT22;880;52.452;8.656;2022-10-16T07:51:30;14.60;99.90
1766;DHT22;880;52.452;8.656;2022-10-16T07:53:57;14.70;99.90
1766;DHT22;880;52.452;8.656;2022-10-16T07:56:27;14.80;99.90
1766;DHT22;880;52.452;8.656;2022-10-16T07:58:54;15.00;99.90
1766;DHT22;880;52.452;8.656;2022-10-16T08:01:23;15.20;99.90
1766;DHT22;880;52.452;8.656;2022-10-16T08:03:51;15.30;99.90
1766;DHT22;880;52.452;8.656;2022-10-16T08:06:20;15.40;99.90
1766;DHT22;880;52.452;8.656;2022-10-16T08:08:54;15.50;99.90
1766;DHT22;880;52.452;8.656;2022-10-16T08:11:22;15.70;99.90
1766;DHT22;880;52.452;8.656;2022-10-16T08:13:50;15.90;99.90
1766;DHT22;880;52.452;8.656;2022-10-16T08:16:17;16.00;99.90
1766;DHT22;880;52.452;8.656;2022-10-16T08:18:44;16.10;99.90
1766;DHT22;880;52.452;8.656;2022-10-16T08:21:15;16.20;99.90
1766;DHT22;880;52.452;8.656;2022-10-16T08:23:47;16.20;99.90
1766;DHT22;880;52.452;8.656;2022-10-16T08:26:25;16.30;99.90
1766;DHT22;880;52.452;8.656;2022-10-16T08:28:53;16.50;99.90
1766;DHT22;880;52.452;8.656;2022-10-16T08:31:21;16.40;99.90
1766;DHT22;880;52.452;8.656;2022-10-16T08:33:48;16.40;99.90
1766;DHT22;880;52.452;8.656;2022-10-16T08:36:16;16.40;99.90
1766;DHT22;880;52.452;8.656;2022-10-16T08:38:43;16.60;99.90
1766;DHT22;880;52.452;8.656;2022-10-16T08:49:58;17.40;99.90
1766;DHT22;880;52.452;8.656;2022-10-16T08:52:34;17.40;99.90
1766;DHT22;880;52.452;8.656;2022-10-16T08:55:03;17.50;99.90
1766;DHT22;880;52.452;8.656;2022-10-16T08:57:31;17.60;99.90
1766;DHT22;880;52.452;8.656;2022-10-16T09:00:09;17.50;99.90
1766;DHT22;880;52.452;8.656;2022-10-16T09:02:52;17.50;99.90
1766;DHT22;880;52.452;8.656;2022-10-16T09:08:18;17.50;99.90
1766;DHT22;880;52.452;8.656;2022-10-16T09:11:29;17.50;99.90
1766;DHT22;880;52.452;8.656;2022-10-16T09:16:44;17.50;99.90
1766;DHT22;880;52.452;8.656;2022-10-16T09:19:24;17.50;99.90
1766;DHT22;880;52.452;8.656;2022-10-16T09:21:55;17.60;99.90
1766;DHT22;880;52.452;8.656;2022-10-16T09:24:26;17.70;99.90
1766;DHT22;880;52.452;8.656;2022-10-16T09:26:55;17.90;99.90
1766;DHT22;880;52.452;8.656;2022-10-16T09:29:22;17.90;99.90
1766;DHT22;880;52.452;8.656;2022-10-16T09:31:52;17.90;99.90
1766;DHT22;880;52.452;8.656;2022-10-16T09:34:33;17.70;99.90
1766;DHT22;880;52.452;8.656;2022-10-16T09:37:05;17.60;99.90
1766;DHT22;880;52.452;8.656;2022-10-16T09:39:47;17.50;99.90
1766;DHT22;880;52.452;8.656;2022-10-16T09:42:31;17.70;99.90
1766;DHT22;880;52.452;8.656;2022-10-16T09:45:00;17.80;99.90
1766;DHT22;880;52.452;8.656;2022-10-16T09:47:29;17.80;99.90
1766;DHT22;880;52.452;8.656;2022-10-16T09:50:01;18.00;99.90
1766;DHT22;880;52.452;8.656;2022-10-16T09:52:33;18.10;99.90
1766;DHT22;880;52.452;8.656;2022-10-16T09:55:02;18.50;99.90
1766;DHT22;880;52.452;8.656;2022-10-16T09:57:53;18.50;99.90
1766;DHT22;880;52.452;8.656;2022-10-16T10:00:22;18.60;99.90
1766;DHT22;880;52.452;8.656;2022-10-16T10:02:51;18.60;99.90
1766;DHT22;880;52.452;8.656;2022-10-16T10:05:26;18.60;99.90
1766;DHT22;880;52.452;8.656;2022-10-16T10:07:57;18.80;99.90
1766;DHT22;880;52.452;8.656;2022-10-16T10:10:30;18.80;99.90
1766;DHT22;880;52.452;8.656;2022-10-16T10:12:59;19.10;99.90
1766;DHT22;880;52.452;8.656;2022-10-16T10:15:29;19.40;99.90
1766;DHT22;880;52.452;8.656;2022-10-16T10:18:00;19.50;99.90
1766;DHT22;880;52.452;8.656;2022-10-16T10:20:34;19.40;99.90
1766;DHT22;880;52.452;8.656;2022-10-16T10:23:25;19.40;99.90
1766;DHT22;880;52.452;8.656;2022-10-16T10:26:15;19.50;99.90
1766;DHT22;880;52.452;8.656;2022-10-16T10:40:43;19.40;99.90
1766;DHT22;880;52.452;8.656;2022-10-16T10:47:04;19.60;99.90
1766;DHT22;880;52.452;8.656;2022-10-16T10:50:13;19.50;99.90
1766;DHT22;880;52.452;8.656;2022-10-16T10:55:59;19.40;99.90
1766;DHT22;880;52.452;8.656;2022-10-16T11:07:30;20.20;99.90
1766;DHT22;880;52.452;8.656;2022-10-16T11:10:13;20.50;99.90
1766;DHT22;880;52.452;8.656;2022-10-16T11:12:47;20.60;99.90
1766;DHT22;880;52.452;8.656;2022-10-16T11:15:31;20.40;99.90
1766;DHT22;880;52.452;8.656;2022-10-16T11:18:23;20.70;99.90
1766;DHT22;880;52.452;8.656;2022-10-16T11:20:57;21.00;99.90
1766;DHT22;880;52.452;8.656;2022-10-16T11:23:38;21.10;99.90
1766;DHT22;880;52.452;8.656;2022-10-16T11:26:23;21.30;99.90
1766;DHT22;880;52.452;8.656;2022-10-16T11:28:54;21.40;99.90
1766;DHT22;880;52.452;8.656;2022-10-16T11:31:35;21.30;99.90
1766;DHT22;880;52.452;8.656;2022-10-16T11:34:22;21.10;99.90
1766;DHT22;880;52.452;8.656;2022-10-16T11:37:01;21.10;99.90
1766;DHT22;880;52.452;8.656;2022-10-16T11:39:44;21.20;99.90
1766;DHT22;880;52.452;8.656;2022-10-16T11:53:16;20.80;99.90
1766;DHT22;880;52.452;8.656;2022-10-16T11:55:48;20.80;99.90
1766;DHT22;880;52.452;8.656;2022-10-16T11:58:41;21.20;99.90
1766;DHT22;880;52.452;8.656;2022-10-16T12:04:43;21.70;99.90
1766;DHT22;880;52.452;8.656;2022-10-16T12:07:23;21.90;99.90
1766;DHT22;880;52.452;8.656;2022-10-16T12:09:53;21.70;99.90
1766;DHT22;880;52.452;8.656;2022-10-16T12:17:56;21.40;99.90
1766;DHT22;880;52.452;8.656;2022-10-16T12:23:02;21.20;99.90
1766;DHT22;880;52.452;8.656;2022-10-16T12:25:35;20.80;99.90
1766;DHT22;880;52.452;8.656;2022-10-16T12:28:19;20.50;99.90
1766;DHT22;880;52.452;8.656;2022-10-16T12:31:05;20.30;99.90
1766;DHT22;880;52.452;8.656;2022-10-16T12:34:01;20.10;99.90
1766;DHT22;880;52.452;8.656;2022-10-16T12:36:33;20.10;99.90
1766;DHT22;880;52.452;8.656;2022-10-16T12:39:01;20.30;99.90
1766;DHT22;880;52.452;8.656;2022-10-16T12:41:35;20.60;99.90
1766;DHT22;880;52.452;8.656;2022-10-16T12:44:24;20.80;99.90
1766;DHT22;880;52.452;8.656;2022-10-16T12:46:52;21.10;99.90
1766;DHT22;880;52.452;8.656;2022-10-16T12:49:30;21.20;99.90
1766;DHT22;880;52.452;8.656;2022-10-16T12:51:59;21.20;99.90
1766;DHT22;880;52.452;8.656;2022-10-16T12:54:44;21.20;99.90
1766;DHT22;880;52.452;8.656;2022-10-16T13:00:34;20.60;99.90
1766;DHT22;880;52.452;8.656;2022-10-16T13:09:27;20.40;99.90
1766;DHT22;880;52.452;8.656;2022-10-16T13:12:11;20.80;99.90
1766;DHT22;880;52.452;8.656;2022-10-16T13:15:48;21.10;99.90
1766;DHT22;880;52.452;8.656;2022-10-16T13:18:15;21.60;99.90
1766;DHT22;880;52.452;8.656;2022-10-16T13:23:42;22.00;99.90
1766;DHT22;880;52.452;8.656;2022-10-16T13:28:50;22.40;99.90
1766;DHT22;880;52.452;8.656;2022-10-16T13:31:21;22.60;99.90
1766;DHT22;880;52.452;8.656;2022-10-16T13:33:58;22.60;99.90
1766;DHT22;880;52.452;8.656;2022-10-16T13:36:34;22.40;99.90
1766;DHT22;880;52.452;8.656;2022-10-16T13:39:14;22.20;99.90
1766;DHT22;880;52.452;8.656;2022-10-16T13:41:46;22.10;99.90
1766;DHT22;880;52.452;8.656;2022-10-16T13:44:24;22.00;99.90
1766;DHT22;880;52.452;8.656;2022-10-16T13:47:02;21.90;99.90
1766;DHT22;880;52.452;8.656;2022-10-16T13:49:29;21.80;99.90
1766;DHT22;880;52.452;8.656;2022-10-16T13:51:59;21.90;99.90
1766;DHT22;880;52.452;8.656;2022-10-16T13:54:27;21.90;99.90
1766;DHT22;880;52.452;8.656;2022-10-16T13:56:55;21.70;99.90
1766;DHT22;880;52.452;8.656;2022-10-16T13:59:36;21.90;99.90
1766;DHT22;880;52.452;8.656;2022-10-16T14:02:25;22.00;99.90
1766;DHT22;880;52.452;8.656;2022-10-16T14:04:54;22.10;99.90
1766;DHT22;880;52.452;8.656;2022-10-16T14:07:29;22.10;99.90
1766;DHT22;880;52.452;8.656;2022-10-16T14:10:04;22.10;99.90
1766;DHT22;880;52.452;8.656;2022-10-16T14:12:33;22.10;99.90
1766;DHT22;880;52.452;8.656;2022-10-16T14:15:01;21.90;99.90
1766;DHT22;880;52.452;8.656;2022-10-16T14:17:31;22.00;99.90
1766;DHT22;880;52.452;8.656;2022-10-16T14:20:02;22.20;99.90
1766;DHT22;880;52.452;8.656;2022-10-16T14:22:41;22.20;99.90
1766;DHT22;880;52.452;8.656;2022-10-16T14:30:30;22.10;99.90
1766;DHT22;880;52.452;8.656;2022-10-16T14:33:04;21.90;99.90
1766;DHT22;880;52.452;8.656;2022-10-16T14:35:35;21.70;99.90
1766;DHT22;880;52.452;8.656;2022-10-16T14:38:05;21.80;99.90
1766;DHT22;880;52.452;8.656;2022-10-16T14:40:47;21.90;99.90
1766;DHT22;880;52.452;8.656;2022-10-16T14:43:21;21.90;99.90
1766;DHT22;880;52.452;8.656;2022-10-16T14:45:54;21.60;99.90
1766;DHT22;880;52.452;8.656;2022-10-16T14:48:22;21.60;99.90
1766;DHT22;880;52.452;8.656;2022-10-16T14:50:50;21.60;99.90
1766;DHT22;880;52.452;8.656;2022-10-16T14:53:17;21.60;99.90
1766;DHT22;880;52.452;8.656;2022-10-16T14:55:44;21.40;99.90
1766;DHT22;880;52.452;8.656;2022-10-16T14:58:16;21.20;99.90
1766;DHT22;880;52.452;8.656;2022-10-16T15:00:45;21.10;99.90
1766;DHT22;880;52.452;8.656;2022-10-16T15:03:13;20.90;99.90
1766;DHT22;880;52.452;8.656;2022-10-16T15:05:40;20.80;99.90
1766;DHT22;880;52.452;8.656;2022-10-16T15:08:07;20.70;99.90
1766;DHT22;880;52.452;8.656;2022-10-16T15:10:39;20.70;99.90
1766;DHT22;880;52.452;8.656;2022-10-16T15:13:11;20.70;99.90
1766;DHT22;880;52.452;8.656;2022-10-16T15:15:47;20.60;99.90
1766;DHT22;880;52.452;8.656;2022-10-16T15:18:15;20.60;99.90
1766;DHT22;880;52.452;8.656;2022-10-16T15:20:49;20.60;99.90
1766;DHT22;880;52.452;8.656;2022-10-16T15:23:18;20.70;99.90
1766;DHT22;880;52.452;8.656;2022-10-16T15:25:52;20.90;99.90
1766;DHT22;880;52.452;8.656;2022-10-16T15:28:22;20.90;99.90
1766;DHT22;880;52.452;8.656;2022-10-16T15:30:52;20.90;99.90
1766;DHT22;880;52.452;8.656;2022-10-16T15:33:23;21.00;99.90
1766;DHT22;880;52.452;8.656;2022-10-16T15:35:54;20.90;99.90
1766;DHT22;880;52.452;8.656;2022-10-16T15:38:22;20.90;99.90
1766;DHT22;880;52.452;8.656;2022-10-16T15:40:50;21.00;99.90
1766;DHT22;880;52.452;8.656;2022-10-16T15:43:17;21.10;99.90
1766;DHT22;880;52.452;8.656;2022-10-16T15:45:59;21.10;99.90
1766;DHT22;880;52.452;8.656;2022-10-16T15:48:29;21.00;99.90
1766;DHT22;880;52.452;8.656;2022-10-16T15:50:56;20.90;99.90
1766;DHT22;880;52.452;8.656;2022-10-16T15:53:23;20.80;99.90
1766;DHT22;880;52.452;8.656;2022-10-16T15:55:51;20.80;99.90
1766;DHT22;880;52.452;8.656;2022-10-16T15:58:18;20.80;99.90
1766;DHT22;880;52.452;8.656;2022-10-16T16:00:45;20.80;99.90
1766;DHT22;880;52.452;8.656;2022-10-16T16:03:12;20.80;99.90
1766;DHT22;880;52.452;8.656;2022-10-16T16:05:39;20.80;99.90
1766;DHT22;880;52.452;8.656;2022-10-16T16:08:11;20.80;99.90
1766;DHT22;880;52.452;8.656;2022-10-16T16:10:38;20.70;99.90
1766;DHT22;880;52.452;8.656;2022-10-16T16:13:05;20.70;99.90
1766;DHT22;880;52.452;8.656;2022-10-16T16:15:32;20.70;99.90
1766;DHT22;880;52.452;8.656;2022-10-16T16:17:59;20.70;99.90
1766;DHT22;880;52.452;8.656;2022-10-16T16:20:28;20.60;99.90
1766;DHT22;880;52.452;8.656;2022-10-16T16:22:55;20.60;99.90
1766;DHT22;880;52.452;8.656;2022-10-16T16:25:22;20.60;99.90
1766;DHT22;880;52.452;8.656;2022-10-16T16:27:49;20.40;99.90
1766;DHT22;880;52.452;8.656;2022-10-16T16:30:16;20.20;99.90
1766;DHT22;880;52.452;8.656;2022-10-16T16:32:48;19.90;99.90
1766;DHT22;880;52.452;8.656;2022-10-16T16:35:15;19.70;99.90
1766;DHT22;880;52.452;8.656;2022-10-16T16:37:42;19.40;99.90
1766;DHT22;880;52.452;8.656;2022-10-16T16:40:09;19.20;99.90
1766;DHT22;880;52.452;8.656;2022-10-16T16:42:36;19.20;99.90
1766;DHT22;880;52.452;8.656;2022-10-16T16:45:03;19.10;99.90
1766;DHT22;880;52.452;8.656;2022-10-16T16:47:30;19.10;99.90
1766;DHT22;880;52.452;8.656;2022-10-16T16:49:57;19.00;99.90
1766;DHT22;880;52.452;8.656;2022-10-16T16:52:24;18.80;99.90
1766;DHT22;880;52.452;8.656;2022-10-16T16:54:51;18.70;99.90
1766;DHT22;880;52.452;8.656;2022-10-16T16:57:19;18.60;99.90
1766;DHT22;880;52.452;8.656;2022-10-16T16:59:49;18.60;99.90
1766;DHT22;880;52.452;8.656;2022-10-16T17:02:17;18.40;99.90
1766;DHT22;880;52.452;8.656;2022-10-16T17:04:44;18.20;99.90
1766;DHT22;880;52.452;8.656;2022-10-16T17:07:11;18.00;99.90
1766;DHT22;880;52.452;8.656;2022-10-16T17:09:38;17.80;99.90
1766;DHT22;880;52.452;8.656;2022-10-16T17:12:05;17.70;99.90
1766;DHT22;880;52.452;8.656;2022-10-16T17:14:31;17.60;99.90
1766;DHT22;880;52.452;8.656;2022-10-16T17:16:58;17.50;99.90
1766;DHT22;880;52.452;8.656;2022-10-16T17:19:25;17.50;99.90
1766;DHT22;880;52.452;8.656;2022-10-16T17:21:52;17.40;99.90
1766;DHT22;880;52.452;8.656;2022-10-16T17:24:20;17.50;99.90
1766;DHT22;880;52.452;8.656;2022-10-16T17:26:47;17.40;99.90
1766;DHT22;880;52.452;8.656;2022-10-16T17:29:16;17.40;99.90
1766;DHT22;880;52.452;8.656;2022-10-16T17:31:44;17.30;99.90
1766;DHT22;880;52.452;8.656;2022-10-16T17:34:11;17.20;99.90
1766;DHT22;880;52.452;8.656;2022-10-16T17:36:39;17.30;99.90
1766;DHT22;880;52.452;8.656;2022-10-16T17:39:12;17.40;99.90
1766;DHT22;880;52.452;8.656;2022-10-16T17:41:39;17.40;99.90
1766;DHT22;880;52.452;8.656;2022-10-16T17:44:06;17.40;99.90
1766;DHT22;880;52.452;8.656;2022-10-16T17:46:34;17.30;99.90
1766;DHT22;880;52.452;8.656;2022-10-16T17:49:08;17.20;99.90
1766;DHT22;880;52.452;8.656;2022-10-16T17:51:35;17.10;99.90
1766;DHT22;880;52.452;8.656;2022-10-16T17:54:02;17.10;99.90
1766;DHT22;880;52.452;8.656;2022-10-16T17:56:30;17.00;99.90
1766;DHT22;880;52.452;8.656;2022-10-16T17:58:59;16.90;99.90
1766;DHT22;880;52.452;8.656;2022-10-16T18:01:32;16.90;99.90
1766;DHT22;880;52.452;8.656;2022-10-16T18:04:09;16.80;99.90
1766;DHT22;880;52.452;8.656;2022-10-16T18:06:39;16.60;99.90
1766;DHT22;880;52.452;8.656;2022-10-16T18:09:09;16.60;99.90
1766;DHT22;880;52.452;8.656;2022-10-16T18:11:37;16.70;99.90
1766;DHT22;880;52.452;8.656;2022-10-16T18:14:04;16.70;99.90
1766;DHT22;880;52.452;8.656;2022-10-16T18:16:32;16.70;99.90
1766;DHT22;880;52.452;8.656;2022-10-16T18:18:59;16.60;99.90
1766;DHT22;880;52.452;8.656;2022-10-16T18:21:27;16.60;99.90
1766;DHT22;880;52.452;8.656;2022-10-16T18:23:54;16.50;99.90
1766;DHT22;880;52.452;8.656;2022-10-16T18:26:23;16.50;99.90
1766;DHT22;880;52.452;8.656;2022-10-16T18:28:52;16.50;99.90